Time;durP1;ratioP1;P1;durP2;ratioP2;P2;SDS_P1;SDS_P2;PMS_P1;PMS_P2;Temp;Humidity;BMP_temperature;BMP_pressure;BME280_temperature;BME280_humidity;BME280_pressure;Samples;Min_cycle;Max_cycle;Signal;HPM_P1;HPM_P2
2022/03/13 00:00:20;;;;;;;;;;;7.90;99.90;;;;;;5103875;28;20322;-79
2022/03/13 00:02:49;;;;;;;;;;;7.90;99.90;;;;;;5098103;28;19914;-87
2022/03/13 00:05:16;;;;;;;;;;;8.00;99.90;;;;;;5094975;28;19908;-87
2022/03/13 00:07:47;;;;;;;;;;;7.90;99.90;;;;;;5094490;28;19915;-88
2022/03/13 00:10:16;;;;;;;;;;;7.90;99.90;;;;;;5093208;28;19999;-86
2022/03/13 00:12:41;;;;;;;;;;;7.90;99.90;;;;;;5092129;28;19912;-85
2022/03/13 00:15:10;;;;;;;;;;;7.80;99.90;;;;;;5094863;28;19959;-82
2022/03/13 00:17:36;;;;;;;;;;;7.70;99.90;;;;;;5094152;28;19908;-80
2022/03/13 00:20:03;;;;;;;;;;;7.60;99.90;;;;;;5093964;28;19962;-79
2022/03/13 00:22:33;;;;;;;;;;;7.60;99.90;;;;;;5094089;28;20429;-78
2022/03/13 00:24:59;;;;;;;;;;;7.60;99.90;;;;;;5096539;28;19923;-78
2022/03/13 00:27:25;;;;;;;;;;;7.50;99.90;;;;;;5104241;28;20381;-78
2022/03/13 00:29:51;;;;;;;;;;;7.60;99.90;;;;;;5093631;28;20002;-78
2022/03/13 00:32:17;;;;;;;;;;;7.50;99.90;;;;;;5093629;28;20062;-78
2022/03/13 00:34:42;;;;;;;;;;;7.50;99.90;;;;;;5093425;28;20069;-78
2022/03/13 00:37:08;;;;;;;;;;;7.60;99.90;;;;;;5075795;28;19908;-78
2022/03/13 00:39:34;;;;;;;;;;;7.60;99.90;;;;;;5093658;28;19995;-79
2022/03/13 00:42:00;;;;;;;;;;;7.60;99.90;;;;;;5093129;28;19908;-79
2022/03/13 00:44:26;;;;;;;;;;;7.70;99.90;;;;;;5093610;28;20280;-81
2022/03/13 00:46:51;;;;;;;;;;;7.70;99.90;;;;;;5093215;28;20356;-83
2022/03/13 00:49:17;;;;;;;;;;;7.80;99.90;;;;;;5093681;28;19919;-79
2022/03/13 00:51:44;;;;;;;;;;;7.80;99.90;;;;;;5092922;28;19918;-78
2022/03/13 00:54:09;;;;;;;;;;;7.90;99.90;;;;;;5093753;28;19965;-78
2022/03/13 00:56:35;;;;;;;;;;;8.00;99.90;;;;;;5093546;28;20253;-78
2022/03/13 00:59:00;;;;;;;;;;;8.10;99.90;;;;;;5091422;28;19989;-78
2022/03/13 01:01:26;;;;;;;;;;;8.10;99.90;;;;;;5093663;28;19920;-78
2022/03/13 01:03:52;;;;;;;;;;;8.10;99.90;;;;;;5092952;28;19916;-88
2022/03/13 01:06:18;;;;;;;;;;;8.20;99.90;;;;;;5094717;28;19934;-86
2022/03/13 01:08:46;;;;;;;;;;;8.20;99.90;;;;;;5092611;28;19956;-89
2022/03/13 01:11:13;;;;;;;;;;;8.20;99.90;;;;;;5092010;28;20003;-88
2022/03/13 01:13:39;;;;;;;;;;;8.20;99.90;;;;;;5092776;28;19937;-84
2022/03/13 01:16:15;;;;;;;;;;;8.20;99.90;;;;;;5092408;28;19912;-79
2022/03/13 01:18:45;;;;;;;;;;;8.20;99.90;;;;;;5113400;28;19916;-78
2022/03/13 01:21:11;;;;;;;;;;;8.20;99.90;;;;;;5093445;28;20009;-78
2022/03/13 01:23:39;;;;;;;;;;;8.20;99.90;;;;;;5093251;28;19959;-77
2022/03/13 01:26:22;;;;;;;;;;;8.20;99.90;;;;;;5092743;28;19912;-77
2022/03/13 01:28:52;;;;;;;;;;;8.20;99.90;;;;;;5092966;28;19951;-77
2022/03/13 01:31:19;;;;;;;;;;;8.30;99.90;;;;;;5093377;28;19915;-78
2022/03/13 01:33:45;;;;;;;;;;;8.20;99.90;;;;;;5092816;28;19955;-78
2022/03/13 01:36:12;;;;;;;;;;;8.30;99.90;;;;;;5093529;28;19939;-78
2022/03/13 01:38:37;;;;;;;;;;;8.30;99.90;;;;;;5093183;28;19915;-78
2022/03/13 01:41:03;;;;;;;;;;;8.30;99.90;;;;;;5092788;28;19912;-77
2022/03/13 01:43:31;;;;;;;;;;;8.30;99.90;;;;;;5092530;28;20002;-78
2022/03/13 01:45:59;;;;;;;;;;;8.30;99.90;;;;;;5092328;28;20370;-79
2022/03/13 01:48:26;;;;;;;;;;;8.30;99.90;;;;;;5093545;28;19915;-84
2022/03/13 01:50:52;;;;;;;;;;;8.30;99.90;;;;;;5092921;28;19915;-86
2022/03/13 01:53:18;;;;;;;;;;;8.30;99.90;;;;;;5093209;28;20387;-80
2022/03/13 01:55:44;;;;;;;;;;;8.30;99.90;;;;;;5092451;28;19912;-79
2022/03/13 01:58:09;;;;;;;;;;;8.30;99.90;;;;;;5091870;28;19919;-80
2022/03/13 02:00:35;;;;;;;;;;;8.40;99.90;;;;;;5093093;28;19920;-79
2022/03/13 02:03:01;;;;;;;;;;;8.40;99.90;;;;;;5092559;28;19908;-79
2022/03/13 02:05:31;;;;;;;;;;;8.50;99.90;;;;;;5093049;28;19916;-78
2022/03/13 02:07:57;;;;;;;;;;;8.50;99.90;;;;;;5092167;28;19908;-78
2022/03/13 02:10:22;;;;;;;;;;;8.50;99.90;;;;;;5092783;28;20229;-78
2022/03/13 02:12:48;;;;;;;;;;;8.50;99.90;;;;;;5092432;28;19912;-78
2022/03/13 02:15:14;;;;;;;;;;;8.50;99.90;;;;;;5092685;28;19912;-78
2022/03/13 02:17:39;;;;;;;;;;;8.50;99.90;;;;;;5093045;28;19919;-78
2022/03/13 02:20:11;;;;;;;;;;;8.50;99.90;;;;;;5092691;28;20801;-78
2022/03/13 02:22:37;;;;;;;;;;;8.50;99.90;;;;;;5093026;28;19908;-78
2022/03/13 02:25:02;;;;;;;;;;;8.50;99.90;;;;;;5092455;28;19908;-78
2022/03/13 02:27:32;;;;;;;;;;;8.50;99.90;;;;;;5092659;28;19912;-78
2022/03/13 02:29:57;;;;;;;;;;;8.50;99.90;;;;;;5091862;28;19909;-78
2022/03/13 02:32:23;;;;;;;;;;;8.50;99.90;;;;;;5101818;28;19966;-78
2022/03/13 02:34:49;;;;;;;;;;;8.40;99.90;;;;;;5092835;28;19912;-77
2022/03/13 02:37:18;;;;;;;;;;;8.40;99.90;;;;;;5092842;28;19915;-78
2022/03/13 02:39:44;;;;;;;;;;;8.40;99.90;;;;;;5092467;28;19912;-78
2022/03/13 02:42:09;;;;;;;;;;;8.40;99.90;;;;;;5092176;28;19935;-78
2022/03/13 02:44:35;;;;;;;;;;;8.50;99.90;;;;;;5092584;28;20379;-78
2022/03/13 02:47:03;;;;;;;;;;;8.40;99.90;;;;;;5091909;28;19989;-81
2022/03/13 02:49:29;;;;;;;;;;;8.40;99.90;;;;;;5090260;28;19908;-81
2022/03/13 02:51:56;;;;;;;;;;;8.30;99.90;;;;;;5091974;28;19916;-82
2022/03/13 02:54:22;;;;;;;;;;;8.30;99.90;;;;;;5093457;28;19947;-80
2022/03/13 02:56:49;;;;;;;;;;;8.30;99.90;;;;;;5095657;28;19954;-80
2022/03/13 02:59:14;;;;;;;;;;;8.30;99.90;;;;;;5096024;28;19961;-81
2022/03/13 03:01:40;;;;;;;;;;;8.20;99.90;;;;;;5096405;28;19912;-80
2022/03/13 03:04:06;;;;;;;;;;;8.20;99.90;;;;;;5094466;28;19908;-79
2022/03/13 03:06:32;;;;;;;;;;;8.20;99.90;;;;;;5096868;28;19908;-79
2022/03/13 03:09:02;;;;;;;;;;;8.20;99.90;;;;;;5095663;28;19954;-80
2022/03/13 03:11:27;;;;;;;;;;;8.20;99.90;;;;;;5095976;28;19943;-80
2022/03/13 03:13:53;;;;;;;;;;;8.10;99.90;;;;;;5094363;28;19955;-79
2022/03/13 03:16:19;;;;;;;;;;;8.10;99.90;;;;;;5096236;28;19908;-78
2022/03/13 03:18:44;;;;;;;;;;;8.10;99.90;;;;;;5095846;28;19908;-79
2022/03/13 03:21:11;;;;;;;;;;;8.20;99.90;;;;;;5095041;28;19977;-79
2022/03/13 03:23:37;;;;;;;;;;;8.10;99.90;;;;;;5095923;28;19908;-79
2022/03/13 03:26:04;;;;;;;;;;;8.10;99.90;;;;;;5095627;28;20402;-83
2022/03/13 03:28:30;;;;;;;;;;;8.20;99.90;;;;;;5095982;28;19957;-85
2022/03/13 03:30:58;;;;;;;;;;;8.20;99.90;;;;;;5094034;28;19998;-83
2022/03/13 03:33:24;;;;;;;;;;;8.20;99.90;;;;;;5096023;28;19918;-80
2022/03/13 03:35:49;;;;;;;;;;;8.20;99.90;;;;;;5095481;28;19915;-78
2022/03/13 03:38:15;;;;;;;;;;;8.20;99.90;;;;;;5095159;28;19908;-79
2022/03/13 03:40:41;;;;;;;;;;;8.30;99.90;;;;;;5095592;28;19908;-79
2022/03/13 03:43:06;;;;;;;;;;;8.20;99.90;;;;;;5093795;28;20323;-78
2022/03/13 03:45:32;;;;;;;;;;;8.20;99.90;;;;;;5110537;28;19908;-77
2022/03/13 03:47:58;;;;;;;;;;;8.20;99.90;;;;;;5097992;28;20353;-78
2022/03/13 03:50:24;;;;;;;;;;;8.30;99.90;;;;;;5094539;28;19907;-78
2022/03/13 03:52:57;;;;;;;;;;;8.30;99.90;;;;;;5094137;28;20399;-78
2022/03/13 03:55:23;;;;;;;;;;;8.30;99.90;;;;;;5095536;28;19912;-78
2022/03/13 03:57:49;;;;;;;;;;;8.30;99.90;;;;;;5094934;28;20061;-78
2022/03/13 04:00:14;;;;;;;;;;;8.30;99.90;;;;;;5093246;28;19920;-78
2022/03/13 04:02:41;;;;;;;;;;;8.30;99.90;;;;;;5095234;28;19950;-78
2022/03/13 04:05:08;;;;;;;;;;;8.30;99.90;;;;;;5094528;28;19915;-78
2022/03/13 04:07:33;;;;;;;;;;;8.30;99.90;;;;;;5094956;28;20049;-79
2022/03/13 04:09:59;;;;;;;;;;;8.40;99.90;;;;;;5094130;28;20376;-78
2022/03/13 04:12:25;;;;;;;;;;;8.40;99.90;;;;;;5094704;28;20261;-79
2022/03/13 04:14:52;;;;;;;;;;;8.50;99.90;;;;;;5094899;28;19912;-78
2022/03/13 04:17:17;;;;;;;;;;;8.40;99.90;;;;;;5094586;28;19908;-78
2022/03/13 04:19:43;;;;;;;;;;;8.50;99.90;;;;;;5094596;28;19916;-77
2022/03/13 04:22:08;;;;;;;;;;;8.60;99.90;;;;;;5092871;28;19908;-78
2022/03/13 04:24:34;;;;;;;;;;;8.60;99.90;;;;;;5095209;28;19908;-77
2022/03/13 04:27:00;;;;;;;;;;;8.60;99.90;;;;;;5094091;28;19916;-77
2022/03/13 04:29:26;;;;;;;;;;;8.60;99.90;;;;;;5094594;28;19931;-78
2022/03/13 04:31:53;;;;;;;;;;;8.60;99.90;;;;;;5094161;28;19912;-78
2022/03/13 04:34:19;;;;;;;;;;;8.60;99.90;;;;;;5093969;28;19935;-78
2022/03/13 04:36:45;;;;;;;;;;;8.60;99.90;;;;;;5093160;28;20341;-77
2022/03/13 04:39:11;;;;;;;;;;;8.50;99.90;;;;;;5094068;28;19961;-77
2022/03/13 04:41:39;;;;;;;;;;;8.50;99.90;;;;;;5093785;28;19909;-77
2022/03/13 04:44:06;;;;;;;;;;;8.50;99.90;;;;;;5094210;28;20257;-77
2022/03/13 04:46:32;;;;;;;;;;;8.50;99.90;;;;;;5094517;28;19915;-77
2022/03/13 04:48:57;;;;;;;;;;;8.50;99.90;;;;;;5093592;28;20280;-76
2022/03/13 04:51:23;;;;;;;;;;;8.50;99.90;;;;;;5094202;28;19915;-77
2022/03/13 04:53:49;;;;;;;;;;;8.50;99.90;;;;;;5094065;28;20350;-83
2022/03/13 04:56:14;;;;;;;;;;;8.40;99.90;;;;;;5093605;28;19915;-86
2022/03/13 04:58:40;;;;;;;;;;;8.40;99.90;;;;;;5111202;28;19904;-80
2022/03/13 05:01:05;;;;;;;;;;;8.40;99.90;;;;;;5098141;28;19975;-80
2022/03/13 05:03:33;;;;;;;;;;;8.30;99.90;;;;;;5092791;28;20322;-78
2022/03/13 05:06:05;;;;;;;;;;;8.40;99.90;;;;;;5093718;28;19961;-78
2022/03/13 05:08:31;;;;;;;;;;;8.40;99.90;;;;;;5094015;28;19912;-78
2022/03/13 05:10:56;;;;;;;;;;;8.40;99.90;;;;;;5093287;28;19915;-77
2022/03/13 05:13:24;;;;;;;;;;;8.40;99.90;;;;;;5093514;28;19912;-78
2022/03/13 05:15:52;;;;;;;;;;;8.40;99.90;;;;;;5093725;28;19915;-77
2022/03/13 05:18:18;;;;;;;;;;;8.40;99.90;;;;;;5092233;28;19904;-78
2022/03/13 05:20:43;;;;;;;;;;;8.50;99.90;;;;;;5093808;28;19915;-78
2022/03/13 05:23:09;;;;;;;;;;;8.50;99.90;;;;;;5093127;28;19973;-77
2022/03/13 05:25:36;;;;;;;;;;;8.40;99.90;;;;;;5093690;28;20284;-77
2022/03/13 05:28:02;;;;;;;;;;;8.40;99.90;;;;;;5092915;28;19915;-77
2022/03/13 05:30:28;;;;;;;;;;;8.40;99.90;;;;;;5092282;28;20414;-77
2022/03/13 05:32:54;;;;;;;;;;;8.40;99.90;;;;;;5093733;28;19955;-78
2022/03/13 05:35:19;;;;;;;;;;;8.40;99.90;;;;;;5093206;28;19959;-77
2022/03/13 05:37:45;;;;;;;;;;;8.50;99.90;;;;;;5093380;28;20265;-77
2022/03/13 05:40:15;;;;;;;;;;;8.50;99.90;;;;;;5092638;28;19915;-77
2022/03/13 05:42:43;;;;;;;;;;;8.50;99.90;;;;;;5093215;28;19912;-78
2022/03/13 05:45:10;;;;;;;;;;;8.40;99.90;;;;;;5092627;28;19934;-77
2022/03/13 05:47:41;;;;;;;;;;;8.50;99.90;;;;;;5091995;28;20291;-77
2022/03/13 05:50:07;;;;;;;;;;;8.50;99.90;;;;;;5092778;28;20265;-77
2022/03/13 05:52:33;;;;;;;;;;;8.40;99.90;;;;;;5093163;28;19919;-78
2022/03/13 05:54:58;;;;;;;;;;;8.40;99.90;;;;;;5093428;28;19981;-78
2022/03/13 05:57:24;;;;;;;;;;;8.40;99.90;;;;;;5092810;28;19908;-77
2022/03/13 05:59:49;;;;;;;;;;;8.30;99.90;;;;;;5091580;28;19923;-77
2022/03/13 06:02:15;;;;;;;;;;;8.30;99.90;;;;;;5090973;28;19912;-77
2022/03/13 06:04:41;;;;;;;;;;;8.30;99.90;;;;;;5091576;28;19914;-79
2022/03/13 06:07:06;;;;;;;;;;;8.30;99.90;;;;;;5091184;28;19972;-78
2022/03/13 06:09:32;;;;;;;;;;;8.20;99.90;;;;;;5092936;28;19915;-78
2022/03/13 06:11:58;;;;;;;;;;;8.20;99.90;;;;;;5093262;28;19912;-78
2022/03/13 06:14:24;;;;;;;;;;;8.20;99.90;;;;;;5102594;28;19912;-77
2022/03/13 06:16:50;;;;;;;;;;;8.20;99.90;;;;;;5093042;28;19935;-78
2022/03/13 06:19:15;;;;;;;;;;;8.20;99.90;;;;;;5092316;28;19908;-78
2022/03/13 06:21:42;;;;;;;;;;;8.20;99.90;;;;;;5092926;28;20268;-78
2022/03/13 06:24:07;;;;;;;;;;;8.30;99.90;;;;;;5092399;28;19915;-77
2022/03/13 06:26:34;;;;;;;;;;;8.30;99.90;;;;;;5092901;28;19909;-78
2022/03/13 06:29:00;;;;;;;;;;;8.30;99.90;;;;;;5092870;28;19915;-77
2022/03/13 06:31:25;;;;;;;;;;;8.40;99.90;;;;;;5096122;28;19908;-78
2022/03/13 06:33:51;;;;;;;;;;;8.50;99.90;;;;;;5096853;28;19923;-78
2022/03/13 06:36:17;;;;;;;;;;;8.50;99.90;;;;;;5096368;28;19916;-78
2022/03/13 06:38:42;;;;;;;;;;;8.50;99.90;;;;;;5096876;28;19915;-78
2022/03/13 06:41:08;;;;;;;;;;;8.50;99.90;;;;;;5096271;28;20349;-77
2022/03/13 06:43:34;;;;;;;;;;;8.60;99.90;;;;;;5096718;28;20021;-77
2022/03/13 06:46:01;;;;;;;;;;;8.60;99.90;;;;;;5096632;28;19965;-78
2022/03/13 06:48:26;;;;;;;;;;;8.60;99.90;;;;;;5096197;28;19912;-78
2022/03/13 06:50:53;;;;;;;;;;;8.60;99.90;;;;;;5096627;28;20371;-78
2022/03/13 06:53:19;;;;;;;;;;;8.60;99.90;;;;;;5095861;28;19916;-78
2022/03/13 06:55:44;;;;;;;;;;;8.60;99.90;;;;;;5094743;28;19912;-78
2022/03/13 06:58:10;;;;;;;;;;;8.60;99.90;;;;;;5095449;28;20006;-77
2022/03/13 07:00:36;;;;;;;;;;;8.50;99.90;;;;;;5093724;28;20010;-77
2022/03/13 07:03:01;;;;;;;;;;;8.50;99.90;;;;;;5094741;28;19908;-77
2022/03/13 07:05:27;;;;;;;;;;;8.50;99.90;;;;;;5095574;28;19998;-77
2022/03/13 07:07:57;;;;;;;;;;;8.50;99.90;;;;;;5096098;28;19930;-77
2022/03/13 07:10:22;;;;;;;;;;;8.50;99.90;;;;;;5095337;28;19908;-77
2022/03/13 07:12:48;;;;;;;;;;;8.40;99.90;;;;;;5095972;28;20310;-78
2022/03/13 07:15:14;;;;;;;;;;;8.40;99.90;;;;;;5095142;28;19920;-78
2022/03/13 07:17:43;;;;;;;;;;;8.40;99.90;;;;;;5096462;28;19916;-78
2022/03/13 07:20:09;;;;;;;;;;;8.30;99.90;;;;;;5095340;28;19912;-77
2022/03/13 07:22:35;;;;;;;;;;;8.40;99.90;;;;;;5095869;28;20001;-77
2022/03/13 07:25:00;;;;;;;;;;;8.30;99.90;;;;;;5095938;28;19912;-78
2022/03/13 07:27:26;;;;;;;;;;;8.30;99.90;;;;;;5095389;28;20558;-78
2022/03/13 07:29:51;;;;;;;;;;;8.40;99.90;;;;;;5095875;28;19912;-77
2022/03/13 07:32:17;;;;;;;;;;;8.30;99.90;;;;;;5096144;28;19967;-77
2022/03/13 07:34:43;;;;;;;;;;;8.30;99.90;;;;;;5095528;28;19950;-79
2022/03/13 07:37:11;;;;;;;;;;;8.30;99.90;;;;;;5094930;28;19934;-77
2022/03/13 07:39:38;;;;;;;;;;;8.30;99.90;;;;;;5095314;28;19966;-78
2022/03/13 07:42:04;;;;;;;;;;;8.30;99.90;;;;;;5094427;28;20357;-78
2022/03/13 07:44:30;;;;;;;;;;;8.40;99.90;;;;;;5094871;28;20357;-79
2022/03/13 07:46:55;;;;;;;;;;;8.40;99.90;;;;;;5095355;28;19915;-78
2022/03/13 07:49:21;;;;;;;;;;;8.40;99.90;;;;;;5095125;28;19916;-78
2022/03/13 07:51:47;;;;;;;;;;;8.30;99.90;;;;;;5095544;28;19959;-78
2022/03/13 07:54:13;;;;;;;;;;;8.30;99.90;;;;;;5094646;28;19912;-78
2022/03/13 07:56:39;;;;;;;;;;;8.30;99.90;;;;;;5095594;28;19917;-78
2022/03/13 07:59:04;;;;;;;;;;;8.30;99.90;;;;;;5095355;28;20418;-78
2022/03/13 08:01:30;;;;;;;;;;;8.30;99.90;;;;;;5094502;28;20410;-78
2022/03/13 08:03:55;;;;;;;;;;;8.30;99.90;;;;;;5095095;28;20318;-78
2022/03/13 08:06:21;;;;;;;;;;;8.30;99.90;;;;;;5094434;28;19908;-77
2022/03/13 08:08:46;;;;;;;;;;;8.40;99.90;;;;;;5095189;28;19912;-77
2022/03/13 08:11:12;;;;;;;;;;;8.50;99.90;;;;;;5094429;28;19915;-77
2022/03/13 08:13:37;;;;;;;;;;;8.60;99.90;;;;;;5094825;28;19911;-76
2022/03/13 08:16:03;;;;;;;;;;;8.70;99.90;;;;;;5094533;28;19912;-77
2022/03/13 08:18:29;;;;;;;;;;;8.90;99.90;;;;;;5094180;28;19919;-77
2022/03/13 08:20:55;;;;;;;;;;;9.10;99.90;;;;;;5094709;28;19908;-77
2022/03/13 08:23:22;;;;;;;;;;;9.30;99.90;;;;;;5076044;28;19961;-77
2022/03/13 08:25:47;;;;;;;;;;;9.40;99.90;;;;;;5094632;28;19909;-78
2022/03/13 08:28:13;;;;;;;;;;;9.50;99.90;;;;;;5094200;28;19908;-77
2022/03/13 08:30:39;;;;;;;;;;;9.60;99.90;;;;;;5094394;28;19915;-77
2022/03/13 08:33:05;;;;;;;;;;;9.70;99.90;;;;;;5094398;28;19912;-77
2022/03/13 08:35:31;;;;;;;;;;;9.80;99.90;;;;;;5092288;28;19912;-78
2022/03/13 08:37:57;;;;;;;;;;;9.90;99.90;;;;;;5092991;28;19911;-78
2022/03/13 08:40:26;;;;;;;;;;;10.00;99.90;;;;;;5093662;28;19915;-76
2022/03/13 08:42:53;;;;;;;;;;;10.20;99.90;;;;;;5094370;28;20057;-76
2022/03/13 08:45:19;;;;;;;;;;;10.20;99.90;;;;;;5093743;28;19914;-76
2022/03/13 08:47:44;;;;;;;;;;;10.10;99.90;;;;;;5094396;28;20002;-76
2022/03/13 08:50:11;;;;;;;;;;;10.10;99.90;;;;;;5104833;28;19911;-76
2022/03/13 08:52:36;;;;;;;;;;;10.00;99.90;;;;;;5095357;28;19919;-76
2022/03/13 08:55:03;;;;;;;;;;;9.90;99.90;;;;;;5093844;28;19912;-78
2022/03/13 08:57:29;;;;;;;;;;;9.90;99.90;;;;;;5093531;28;19908;-77
2022/03/13 08:59:55;;;;;;;;;;;9.80;99.90;;;;;;5093705;28;19974;-77
2022/03/13 09:02:22;;;;;;;;;;;9.70;99.90;;;;;;5093266;28;19942;-77
2022/03/13 09:04:48;;;;;;;;;;;9.60;99.90;;;;;;5093786;28;19919;-78
2022/03/13 09:07:13;;;;;;;;;;;9.60;99.90;;;;;;5092884;28;19908;-77
2022/03/13 09:09:39;;;;;;;;;;;9.60;99.90;;;;;;5091796;28;19968;-77
2022/03/13 09:12:06;;;;;;;;;;;9.60;99.90;;;;;;5093065;28;19912;-77
2022/03/13 09:14:34;;;;;;;;;;;9.50;99.90;;;;;;5092513;28;19919;-77
2022/03/13 09:17:01;;;;;;;;;;;9.50;99.90;;;;;;5093265;28;19912;-77
2022/03/13 09:19:26;;;;;;;;;;;9.50;99.90;;;;;;5092588;28;20349;-77
2022/03/13 09:21:52;;;;;;;;;;;9.50;99.90;;;;;;5093218;28;20030;-77
2022/03/13 09:24:17;;;;;;;;;;;9.50;99.90;;;;;;5092709;28;20384;-77
2022/03/13 09:26:43;;;;;;;;;;;9.50;99.90;;;;;;5093327;28;19914;-77
2022/03/13 09:29:09;;;;;;;;;;;9.50;99.90;;;;;;5093114;28;19908;-77
2022/03/13 09:31:35;;;;;;;;;;;9.60;99.90;;;;;;5092524;28;20388;-77
2022/03/13 09:34:00;;;;;;;;;;;9.70;99.90;;;;;;5092780;28;20015;-77
2022/03/13 09:36:26;;;;;;;;;;;9.80;99.90;;;;;;5092437;28;19961;-77
2022/03/13 09:38:52;;;;;;;;;;;9.80;99.90;;;;;;5093355;28;19955;-78
2022/03/13 09:41:17;;;;;;;;;;;9.90;99.90;;;;;;5092174;28;19909;-77
2022/03/13 09:43:43;;;;;;;;;;;10.00;99.90;;;;;;5092755;28;19915;-77
2022/03/13 09:46:09;;;;;;;;;;;10.10;99.90;;;;;;5092954;28;19908;-79
2022/03/13 09:48:35;;;;;;;;;;;10.20;99.90;;;;;;5092341;28;19994;-77
2022/03/13 09:51:04;;;;;;;;;;;10.30;99.90;;;;;;5092861;28;20009;-77
2022/03/13 09:53:33;;;;;;;;;;;10.30;99.90;;;;;;5091981;28;19928;-77
2022/03/13 09:56:01;;;;;;;;;;;10.30;99.90;;;;;;5093451;28;19912;-76
2022/03/13 09:58:28;;;;;;;;;;;10.30;99.90;;;;;;5093310;28;19909;-78
2022/03/13 10:00:53;;;;;;;;;;;10.40;99.90;;;;;;5092322;28;20387;-79
2022/03/13 10:03:19;;;;;;;;;;;10.40;99.90;;;;;;5092234;28;19999;-79
2022/03/13 10:05:48;;;;;;;;;;;10.40;99.90;;;;;;5104618;28;19932;-79
2022/03/13 10:08:15;;;;;;;;;;;10.40;99.90;;;;;;5094163;28;19908;-77
2022/03/13 10:10:45;;;;;;;;;;;10.40;99.90;;;;;;5092687;28;19912;-79
2022/03/13 10:13:11;;;;;;;;;;;10.40;99.90;;;;;;5092447;28;20457;-79
2022/03/13 10:15:46;;;;;;;;;;;10.40;99.90;;;;;;5091954;28;19993;-78
2022/03/13 10:18:19;;;;;;;;;;;10.40;99.90;;;;;;5092405;28;20007;-79
2022/03/13 10:20:45;;;;;;;;;;;10.40;99.90;;;;;;5092742;28;19993;-78
2022/03/13 10:23:15;;;;;;;;;;;10.50;99.90;;;;;;5091307;28;19912;-79
2022/03/13 10:25:42;;;;;;;;;;;10.50;99.90;;;;;;5091410;28;19914;-79
2022/03/13 10:28:24;;;;;;;;;;;10.50;99.90;;;;;;5092663;28;19970;-79
2022/03/13 10:30:58;;;;;;;;;;;10.50;99.90;;;;;;5092829;28;20272;-79
2022/03/13 10:33:28;;;;;;;;;;;10.50;99.90;;;;;;5091555;28;19965;-78
2022/03/13 10:36:10;;;;;;;;;;;10.50;99.90;;;;;;5091192;28;19916;-79
2022/03/13 10:38:36;;;;;;;;;;;10.50;99.90;;;;;;5092192;28;19934;-79
2022/03/13 10:41:05;;;;;;;;;;;10.60;99.90;;;;;;5092311;28;20303;-79
2022/03/13 10:43:32;;;;;;;;;;;10.60;99.90;;;;;;5091929;28;19918;-78
2022/03/13 10:45:58;;;;;;;;;;;10.80;99.90;;;;;;5092520;28;19958;-79
2022/03/13 10:48:32;;;;;;;;;;;10.90;99.90;;;;;;5091889;28;19962;-79
2022/03/13 10:51:00;;;;;;;;;;;10.90;99.90;;;;;;5092638;28;20381;-79
2022/03/13 10:53:27;;;;;;;;;;;11.00;99.90;;;;;;5091803;28;19918;-79
2022/03/13 10:55:59;;;;;;;;;;;11.10;99.90;;;;;;5092511;28;19974;-78
2022/03/13 10:58:30;;;;;;;;;;;11.10;99.90;;;;;;5091916;28;19908;-78
2022/03/13 11:01:07;;;;;;;;;;;11.10;99.90;;;;;;5092669;28;19973;-78
2022/03/13 11:03:34;;;;;;;;;;;11.10;99.90;;;;;;5091950;28;19908;-78
2022/03/13 11:06:00;;;;;;;;;;;11.00;99.90;;;;;;5092077;28;19908;-79
2022/03/13 11:08:26;;;;;;;;;;;11.00;99.90;;;;;;5091854;28;19908;-78
2022/03/13 11:10:52;;;;;;;;;;;10.90;99.90;;;;;;5092649;28;19931;-79
2022/03/13 11:13:20;;;;;;;;;;;10.90;99.90;;;;;;5090601;28;19999;-78
2022/03/13 11:15:46;;;;;;;;;;;10.90;99.90;;;;;;5092285;28;19919;-79
2022/03/13 11:18:11;;;;;;;;;;;11.00;99.90;;;;;;5097940;28;20006;-78
2022/03/13 11:20:39;;;;;;;;;;;11.00;99.90;;;;;;5096099;28;19951;-78
2022/03/13 11:23:08;;;;;;;;;;;11.00;99.90;;;;;;5095681;28;20000;-78
2022/03/13 11:25:37;;;;;;;;;;;11.00;99.90;;;;;;5095210;28;19931;-78
2022/03/13 11:28:03;;;;;;;;;;;11.00;99.90;;;;;;5095384;28;19908;-78
2022/03/13 11:30:30;;;;;;;;;;;11.00;99.90;;;;;;5095189;28;19965;-78
2022/03/13 11:32:56;;;;;;;;;;;11.00;99.90;;;;;;5095523;28;20006;-79
2022/03/13 11:35:23;;;;;;;;;;;10.90;99.90;;;;;;5094879;28;19912;-77
2022/03/13 11:37:53;;;;;;;;;;;11.00;99.90;;;;;;5094566;28;19908;-78
2022/03/13 11:40:20;;;;;;;;;;;11.10;99.90;;;;;;5095237;28;20344;-78
2022/03/13 11:42:48;;;;;;;;;;;11.20;99.90;;;;;;5095256;28;19908;-78
2022/03/13 11:45:35;;;;;;;;;;;11.20;99.90;;;;;;5102788;28;19915;-80
2022/03/13 11:48:08;;;;;;;;;;;11.30;99.90;;;;;;5102029;28;19954;-79
2022/03/13 11:50:50;;;;;;;;;;;11.30;99.90;;;;;;5094834;28;19920;-79
2022/03/13 11:53:16;;;;;;;;;;;11.30;99.90;;;;;;5095284;28;19970;-79
2022/03/13 11:55:57;;;;;;;;;;;11.30;99.90;;;;;;5094628;28;19951;-79
2022/03/13 11:58:38;;;;;;;;;;;11.30;99.90;;;;;;5094537;28;19908;-78
2022/03/13 12:01:07;;;;;;;;;;;11.30;99.90;;;;;;5094885;28;19973;-80
2022/03/13 12:03:32;;;;;;;;;;;11.30;99.90;;;;;;5094623;28;20256;-79
2022/03/13 12:05:59;;;;;;;;;;;11.40;99.90;;;;;;5094625;28;19912;-80
2022/03/13 12:08:45;;;;;;;;;;;11.50;99.90;;;;;;5094527;28;20333;-79
2022/03/13 12:11:52;;;;;;;;;;;11.60;99.90;;;;;;5094225;28;19919;-80
2022/03/13 12:14:18;;;;;;;;;;;11.70;99.90;;;;;;5051874;28;19917;-79
2022/03/13 12:16:45;;;;;;;;;;;11.50;99.90;;;;;;5051286;28;19913;-78
2022/03/13 12:19:10;;;;;;;;;;;11.30;99.90;;;;;;5051173;28;19913;-78
2022/03/13 12:21:37;;;;;;;;;;;11.20;99.90;;;;;;5051032;28;19909;-78
2022/03/13 12:24:12;;;;;;;;;;;11.10;99.90;;;;;;5051452;28;19974;-78
2022/03/13 12:26:39;;;;;;;;;;;11.00;99.90;;;;;;5050715;28;19913;-78
2022/03/13 12:29:05;;;;;;;;;;;11.00;99.90;;;;;;5050988;28;19943;-78
2022/03/13 12:31:38;;;;;;;;;;;11.00;99.90;;;;;;5059246;28;20340;-78
2022/03/13 12:34:04;;;;;;;;;;;11.00;99.90;;;;;;5051367;28;19916;-78
2022/03/13 12:36:33;;;;;;;;;;;11.00;99.90;;;;;;5050402;28;19924;-78
2022/03/13 12:38:59;;;;;;;;;;;11.00;99.90;;;;;;5051433;28;20471;-78
2022/03/13 12:41:25;;;;;;;;;;;11.10;99.90;;;;;;5060599;28;19909;-77
2022/03/13 12:43:56;;;;;;;;;;;11.20;99.90;;;;;;5056735;28;19912;-78
2022/03/13 12:46:23;;;;;;;;;;;11.30;99.90;;;;;;5093349;28;19908;-77
2022/03/13 12:48:55;;;;;;;;;;;11.50;99.90;;;;;;5093430;28;19915;-78
2022/03/13 12:51:34;;;;;;;;;;;11.70;99.90;;;;;;5093636;28;19912;-79
2022/03/13 12:54:23;;;;;;;;;;;11.90;99.90;;;;;;5093349;28;19916;-78
2022/03/13 12:56:55;;;;;;;;;;;12.10;99.90;;;;;;5093191;28;19912;-78
2022/03/13 12:59:31;;;;;;;;;;;12.30;99.90;;;;;;5093037;28;19912;-79
2022/03/13 13:02:18;;;;;;;;;;;12.20;99.90;;;;;;5093891;28;19908;-78
2022/03/13 13:04:46;;;;;;;;;;;12.30;99.90;;;;;;5093327;28;20605;-79
2022/03/13 13:07:12;;;;;;;;;;;12.50;99.90;;;;;;5093731;28;20060;-78
2022/03/13 13:09:40;;;;;;;;;;;12.60;99.90;;;;;;5093309;28;19914;-79
2022/03/13 13:12:09;;;;;;;;;;;12.60;99.90;;;;;;5091574;28;19938;-79
2022/03/13 13:14:36;;;;;;;;;;;12.50;99.90;;;;;;5090934;28;20004;-79
2022/03/13 13:17:09;;;;;;;;;;;12.50;99.90;;;;;;5093297;28;20376;-79
2022/03/13 13:19:38;;;;;;;;;;;12.50;99.90;;;;;;5093041;28;20386;-79
2022/03/13 13:22:04;;;;;;;;;;;12.40;99.90;;;;;;5093437;28;20463;-79
2022/03/13 13:24:36;;;;;;;;;;;12.40;99.90;;;;;;5093063;28;19955;-79
2022/03/13 13:27:02;;;;;;;;;;;12.40;99.90;;;;;;5093563;28;19953;-79
2022/03/13 13:29:34;;;;;;;;;;;12.30;99.90;;;;;;5092799;28;20258;-78
2022/03/13 13:32:18;;;;;;;;;;;12.20;99.90;;;;;;5093257;28;20053;-79
2022/03/13 13:35:02;;;;;;;;;;;12.30;99.90;;;;;;5092764;28;20861;-79
2022/03/13 13:37:28;;;;;;;;;;;12.30;99.90;;;;;;5092546;28;20044;-78
2022/03/13 13:40:02;;;;;;;;;;;12.30;99.90;;;;;;5092430;28;20003;-79
2022/03/13 13:42:28;;;;;;;;;;;12.20;99.90;;;;;;5092648;28;19948;-78
2022/03/13 13:44:53;;;;;;;;;;;12.30;99.90;;;;;;5102008;28;19908;-80
2022/03/13 13:47:24;;;;;;;;;;;12.30;99.90;;;;;;5099958;28;19908;-79
2022/03/13 13:49:49;;;;;;;;;;;12.20;99.90;;;;;;5092641;28;19916;-78
2022/03/13 13:52:15;;;;;;;;;;;12.20;99.90;;;;;;5093242;28;19916;-79
2022/03/13 13:54:41;;;;;;;;;;;12.20;99.90;;;;;;5092611;28;20198;-79
2022/03/13 13:57:06;;;;;;;;;;;12.10;99.90;;;;;;5093251;28;20290;-79
2022/03/13 13:59:38;;;;;;;;;;;12.10;99.90;;;;;;5092286;28;20258;-79
2022/03/13 14:02:03;;;;;;;;;;;12.00;99.90;;;;;;5092837;28;19928;-79
2022/03/13 14:04:30;;;;;;;;;;;11.90;99.90;;;;;;5091841;28;19912;-78
2022/03/13 14:06:56;;;;;;;;;;;11.80;99.90;;;;;;5092663;28;19916;-78
2022/03/13 14:09:22;;;;;;;;;;;11.80;99.90;;;;;;5092704;28;19915;-78
2022/03/13 14:11:48;;;;;;;;;;;11.70;99.90;;;;;;5092300;28;20732;-79
2022/03/13 14:14:14;;;;;;;;;;;11.70;99.90;;;;;;5091360;28;19919;-80
2022/03/13 14:16:39;;;;;;;;;;;11.80;99.90;;;;;;5092118;28;19923;-79
2022/03/13 14:19:05;;;;;;;;;;;11.90;99.90;;;;;;5092687;28;19908;-79
2022/03/13 14:21:33;;;;;;;;;;;11.90;99.90;;;;;;5090850;28;19908;-78
2022/03/13 14:23:58;;;;;;;;;;;11.80;99.90;;;;;;5092069;28;20314;-79
2022/03/13 14:26:24;;;;;;;;;;;11.70;99.90;;;;;;5092135;28;20002;-79